sensor_id;sensor_type;location;lat;lon;timestamp;P1;durP1;ratioP1;P2;durP2;ratioP2
64571;SDS011;51155;51.984;21.208;2023-02-02T00:00:56;3.50;;;1.70;;
64571;SDS011;51155;51.984;21.208;2023-02-02T00:03:28;3.10;;;1.90;;
64571;SDS011;51155;51.984;21.208;2023-02-02T00:06:01;3.90;;;2.00;;
64571;SDS011;51155;51.984;21.208;2023-02-02T00:08:34;3.90;;;1.80;;
64571;SDS011;51155;51.984;21.208;2023-02-02T00:11:07;4.20;;;1.90;;
64571;SDS011;51155;51.984;21.208;2023-02-02T00:13:39;4.70;;;1.90;;
64571;SDS011;51155;51.984;21.208;2023-02-02T00:19:11;2.80;;;1.70;;
64571;SDS011;51155;51.984;21.208;2023-02-02T00:21:44;3.50;;;1.80;;
64571;SDS011;51155;51.984;21.208;2023-02-02T00:24:16;3.70;;;1.70;;
64571;SDS011;51155;51.984;21.208;2023-02-02T00:26:51;3.90;;;1.90;;
64571;SDS011;51155;51.984;21.208;2023-02-02T00:29:26;3.50;;;1.70;;
64571;SDS011;51155;51.984;21.208;2023-02-02T00:31:59;3.30;;;1.80;;
64571;SDS011;51155;51.984;21.208;2023-02-02T00:34:31;3.60;;;1.80;;
64571;SDS011;51155;51.984;21.208;2023-02-02T00:37:03;3.80;;;1.80;;
64571;SDS011;51155;51.984;21.208;2023-02-02T00:39:35;3.50;;;1.80;;
64571;SDS011;51155;51.984;21.208;2023-02-02T00:42:09;3.40;;;1.80;;
64571;SDS011;51155;51.984;21.208;2023-02-02T00:44:42;4.20;;;1.90;;
64571;SDS011;51155;51.984;21.208;2023-02-02T00:47:33;3.00;;;1.70;;
64571;SDS011;51155;51.984;21.208;2023-02-02T00:50:05;4.00;;;1.90;;
64571;SDS011;51155;51.984;21.208;2023-02-02T00:52:37;5.50;;;1.90;;
64571;SDS011;51155;51.984;21.208;2023-02-02T00:55:11;4.40;;;1.80;;
64571;SDS011;51155;51.984;21.208;2023-02-02T00:57:43;3.80;;;2.00;;
64571;SDS011;51155;51.984;21.208;2023-02-02T01:00:18;3.80;;;1.70;;
64571;SDS011;51155;51.984;21.208;2023-02-02T01:02:51;3.40;;;1.70;;
64571;SDS011;51155;51.984;21.208;2023-02-02T01:05:23;3.20;;;1.80;;
64571;SDS011;51155;51.984;21.208;2023-02-02T01:07:56;3.20;;;1.70;;
64571;SDS011;51155;51.984;21.208;2023-02-02T01:10:28;3.50;;;1.40;;
64571;SDS011;51155;51.984;21.208;2023-02-02T01:13:00;3.30;;;1.80;;
64571;SDS011;51155;51.984;21.208;2023-02-02T01:15:32;3.10;;;1.50;;
64571;SDS011;51155;51.984;21.208;2023-02-02T01:18:04;3.50;;;1.60;;
64571;SDS011;51155;51.984;21.208;2023-02-02T01:20:36;2.50;;;1.50;;
64571;SDS011;51155;51.984;21.208;2023-02-02T01:23:08;4.70;;;2.20;;
64571;SDS011;51155;51.984;21.208;2023-02-02T01:25:40;2.50;;;1.70;;
64571;SDS011;51155;51.984;21.208;2023-02-02T01:28:12;3.30;;;1.80;;
64571;SDS011;51155;51.984;21.208;2023-02-02T01:30:44;3.50;;;1.60;;
64571;SDS011;51155;51.984;21.208;2023-02-02T01:33:17;3.20;;;1.70;;
64571;SDS011;51155;51.984;21.208;2023-02-02T01:35:51;2.80;;;1.40;;
64571;SDS011;51155;51.984;21.208;2023-02-02T01:38:24;3.40;;;1.70;;
64571;SDS011;51155;51.984;21.208;2023-02-02T01:40:56;3.90;;;1.90;;
64571;SDS011;51155;51.984;21.208;2023-02-02T01:43:58;2.70;;;1.70;;
64571;SDS011;51155;51.984;21.208;2023-02-02T01:46:32;3.80;;;1.70;;
64571;SDS011;51155;51.984;21.208;2023-02-02T01:49:13;3.40;;;1.60;;
64571;SDS011;51155;51.984;21.208;2023-02-02T01:51:53;3.90;;;1.80;;
64571;SDS011;51155;51.984;21.208;2023-02-02T01:57:05;3.20;;;1.80;;
64571;SDS011;51155;51.984;21.208;2023-02-02T01:59:40;4.00;;;1.90;;
64571;SDS011;51155;51.984;21.208;2023-02-02T02:02:12;2.10;;;1.40;;
64571;SDS011;51155;51.984;21.208;2023-02-02T02:04:44;3.30;;;1.50;;
64571;SDS011;51155;51.984;21.208;2023-02-02T02:07:16;3.40;;;1.50;;
64571;SDS011;51155;51.984;21.208;2023-02-02T02:09:48;4.10;;;2.00;;
64571;SDS011;51155;51.984;21.208;2023-02-02T02:12:23;3.90;;;1.70;;
64571;SDS011;51155;51.984;21.208;2023-02-02T02:14:55;2.80;;;1.50;;
64571;SDS011;51155;51.984;21.208;2023-02-02T02:28:02;3.60;;;1.40;;
64571;SDS011;51155;51.984;21.208;2023-02-02T02:33:45;4.70;;;1.80;;
64571;SDS011;51155;51.984;21.208;2023-02-02T02:39:04;2.60;;;1.50;;
64571;SDS011;51155;51.984;21.208;2023-02-02T02:41:45;2.90;;;1.50;;
64571;SDS011;51155;51.984;21.208;2023-02-02T02:44:19;2.40;;;1.40;;
64571;SDS011;51155;51.984;21.208;2023-02-02T02:49:24;2.40;;;1.20;;
64571;SDS011;51155;51.984;21.208;2023-02-02T02:51:56;2.80;;;1.40;;
64571;SDS011;51155;51.984;21.208;2023-02-02T02:54:33;2.80;;;1.40;;
64571;SDS011;51155;51.984;21.208;2023-02-02T03:03:16;2.20;;;1.40;;
64571;SDS011;51155;51.984;21.208;2023-02-02T03:09:08;2.90;;;1.60;;
64571;SDS011;51155;51.984;21.208;2023-02-02T03:11:41;3.60;;;1.70;;
64571;SDS011;51155;51.984;21.208;2023-02-02T03:14:13;2.80;;;1.40;;
64571;SDS011;51155;51.984;21.208;2023-02-02T03:16:45;3.10;;;1.50;;
64571;SDS011;51155;51.984;21.208;2023-02-02T03:19:17;2.30;;;1.30;;
64571;SDS011;51155;51.984;21.208;2023-02-02T03:21:49;3.00;;;1.50;;
64571;SDS011;51155;51.984;21.208;2023-02-02T03:24:21;2.90;;;1.50;;
64571;SDS011;51155;51.984;21.208;2023-02-02T03:26:53;3.30;;;1.50;;
64571;SDS011;51155;51.984;21.208;2023-02-02T03:29:25;2.30;;;1.40;;
64571;SDS011;51155;51.984;21.208;2023-02-02T03:31:58;2.60;;;1.40;;
64571;SDS011;51155;51.984;21.208;2023-02-02T03:34:30;2.60;;;1.20;;
64571;SDS011;51155;51.984;21.208;2023-02-02T03:37:02;2.80;;;1.60;;
64571;SDS011;51155;51.984;21.208;2023-02-02T03:39:34;2.10;;;1.20;;
64571;SDS011;51155;51.984;21.208;2023-02-02T03:42:06;2.20;;;1.20;;
64571;SDS011;51155;51.984;21.208;2023-02-02T03:44:38;2.90;;;1.80;;
64571;SDS011;51155;51.984;21.208;2023-02-02T03:47:10;1.70;;;1.10;;
64571;SDS011;51155;51.984;21.208;2023-02-02T03:49:42;1.70;;;1.20;;
64571;SDS011;51155;51.984;21.208;2023-02-02T03:52:14;3.00;;;1.40;;
64571;SDS011;51155;51.984;21.208;2023-02-02T03:54:46;1.80;;;1.10;;
64571;SDS011;51155;51.984;21.208;2023-02-02T03:57:18;3.20;;;1.50;;
64571;SDS011;51155;51.984;21.208;2023-02-02T03:59:50;2.90;;;1.40;;
64571;SDS011;51155;51.984;21.208;2023-02-02T04:02:22;3.10;;;1.70;;
64571;SDS011;51155;51.984;21.208;2023-02-02T04:04:54;2.20;;;1.30;;
64571;SDS011;51155;51.984;21.208;2023-02-02T04:07:26;3.20;;;1.40;;
64571;SDS011;51155;51.984;21.208;2023-02-02T04:09:58;2.10;;;1.20;;
64571;SDS011;51155;51.984;21.208;2023-02-02T04:12:30;1.80;;;1.50;;
64571;SDS011;51155;51.984;21.208;2023-02-02T04:15:02;3.30;;;1.40;;
64571;SDS011;51155;51.984;21.208;2023-02-02T04:17:34;2.30;;;1.10;;
64571;SDS011;51155;51.984;21.208;2023-02-02T04:20:07;2.60;;;1.40;;
64571;SDS011;51155;51.984;21.208;2023-02-02T04:22:39;2.90;;;1.40;;
64571;SDS011;51155;51.984;21.208;2023-02-02T04:25:11;2.50;;;1.10;;
64571;SDS011;51155;51.984;21.208;2023-02-02T04:27:43;2.80;;;1.20;;
64571;SDS011;51155;51.984;21.208;2023-02-02T04:30:15;2.60;;;1.30;;
64571;SDS011;51155;51.984;21.208;2023-02-02T04:32:47;3.60;;;1.20;;
64571;SDS011;51155;51.984;21.208;2023-02-02T04:35:19;2.30;;;1.20;;
64571;SDS011;51155;51.984;21.208;2023-02-02T04:37:51;2.70;;;1.10;;
64571;SDS011;51155;51.984;21.208;2023-02-02T04:40:23;2.10;;;1.20;;
64571;SDS011;51155;51.984;21.208;2023-02-02T04:42:56;2.40;;;1.10;;
64571;SDS011;51155;51.984;21.208;2023-02-02T04:45:28;2.20;;;1.20;;
64571;SDS011;51155;51.984;21.208;2023-02-02T04:48:01;2.30;;;1.20;;
64571;SDS011;51155;51.984;21.208;2023-02-02T04:50:32;3.40;;;1.20;;
64571;SDS011;51155;51.984;21.208;2023-02-02T04:53:04;1.90;;;1.00;;
64571;SDS011;51155;51.984;21.208;2023-02-02T04:55:37;2.50;;;1.10;;
64571;SDS011;51155;51.984;21.208;2023-02-02T04:58:09;3.80;;;1.60;;
64571;SDS011;51155;51.984;21.208;2023-02-02T05:00:41;2.40;;;1.00;;
64571;SDS011;51155;51.984;21.208;2023-02-02T05:03:13;2.30;;;1.20;;
64571;SDS011;51155;51.984;21.208;2023-02-02T05:05:45;1.90;;;1.00;;
64571;SDS011;51155;51.984;21.208;2023-02-02T05:08:17;3.30;;;1.30;;
64571;SDS011;51155;51.984;21.208;2023-02-02T05:10:49;1.90;;;1.00;;
64571;SDS011;51155;51.984;21.208;2023-02-02T05:13:21;3.00;;;1.30;;
64571;SDS011;51155;51.984;21.208;2023-02-02T05:15:53;2.00;;;1.00;;
64571;SDS011;51155;51.984;21.208;2023-02-02T05:18:26;2.30;;;1.30;;
64571;SDS011;51155;51.984;21.208;2023-02-02T05:20:59;2.10;;;1.10;;
64571;SDS011;51155;51.984;21.208;2023-02-02T05:23:31;3.70;;;1.30;;
64571;SDS011;51155;51.984;21.208;2023-02-02T05:26:03;2.20;;;1.00;;
64571;SDS011;51155;51.984;21.208;2023-02-02T05:28:35;2.50;;;1.20;;
64571;SDS011;51155;51.984;21.208;2023-02-02T05:31:08;2.50;;;1.30;;
64571;SDS011;51155;51.984;21.208;2023-02-02T05:33:40;2.40;;;1.30;;
64571;SDS011;51155;51.984;21.208;2023-02-02T05:36:12;2.20;;;1.30;;
64571;SDS011;51155;51.984;21.208;2023-02-02T05:38:44;2.60;;;1.10;;
64571;SDS011;51155;51.984;21.208;2023-02-02T05:41:16;2.10;;;1.30;;
64571;SDS011;51155;51.984;21.208;2023-02-02T05:43:48;2.70;;;1.10;;
64571;SDS011;51155;51.984;21.208;2023-02-02T05:46:20;2.70;;;1.20;;
64571;SDS011;51155;51.984;21.208;2023-02-02T05:48:52;1.40;;;0.80;;
64571;SDS011;51155;51.984;21.208;2023-02-02T05:51:28;3.50;;;1.00;;
64571;SDS011;51155;51.984;21.208;2023-02-02T05:54:01;2.00;;;1.00;;
64571;SDS011;51155;51.984;21.208;2023-02-02T05:56:33;2.20;;;1.10;;
64571;SDS011;51155;51.984;21.208;2023-02-02T05:59:05;2.20;;;1.20;;
64571;SDS011;51155;51.984;21.208;2023-02-02T06:01:38;3.10;;;1.20;;
64571;SDS011;51155;51.984;21.208;2023-02-02T06:04:10;2.80;;;1.10;;
64571;SDS011;51155;51.984;21.208;2023-02-02T06:06:42;2.20;;;1.20;;
64571;SDS011;51155;51.984;21.208;2023-02-02T06:09:14;3.40;;;1.10;;
64571;SDS011;51155;51.984;21.208;2023-02-02T06:11:46;3.10;;;1.30;;
64571;SDS011;51155;51.984;21.208;2023-02-02T06:14:18;1.60;;;1.00;;
64571;SDS011;51155;51.984;21.208;2023-02-02T06:16:50;2.40;;;1.00;;
64571;SDS011;51155;51.984;21.208;2023-02-02T06:19:22;2.10;;;0.90;;
64571;SDS011;51155;51.984;21.208;2023-02-02T06:21:54;1.20;;;0.90;;
64571;SDS011;51155;51.984;21.208;2023-02-02T06:24:26;2.00;;;0.90;;
64571;SDS011;51155;51.984;21.208;2023-02-02T06:26:58;2.30;;;1.30;;
64571;SDS011;51155;51.984;21.208;2023-02-02T06:29:30;2.20;;;1.00;;
64571;SDS011;51155;51.984;21.208;2023-02-02T06:32:02;2.00;;;1.00;;
64571;SDS011;51155;51.984;21.208;2023-02-02T06:34:34;2.30;;;0.90;;
64571;SDS011;51155;51.984;21.208;2023-02-02T06:37:06;2.80;;;1.40;;
64571;SDS011;51155;51.984;21.208;2023-02-02T06:39:38;2.60;;;1.20;;
64571;SDS011;51155;51.984;21.208;2023-02-02T06:42:10;2.40;;;1.20;;
64571;SDS011;51155;51.984;21.208;2023-02-02T06:44:52;2.80;;;1.10;;
64571;SDS011;51155;51.984;21.208;2023-02-02T06:47:24;3.60;;;1.00;;
64571;SDS011;51155;51.984;21.208;2023-02-02T06:49:57;2.20;;;1.10;;
64571;SDS011;51155;51.984;21.208;2023-02-02T06:52:29;2.10;;;1.00;;
64571;SDS011;51155;51.984;21.208;2023-02-02T06:55:01;1.10;;;0.70;;
64571;SDS011;51155;51.984;21.208;2023-02-02T06:57:33;1.50;;;1.30;;
64571;SDS011;51155;51.984;21.208;2023-02-02T07:00:07;2.60;;;1.10;;
64571;SDS011;51155;51.984;21.208;2023-02-02T07:02:39;2.70;;;1.00;;
64571;SDS011;51155;51.984;21.208;2023-02-02T07:05:15;2.40;;;0.90;;
64571;SDS011;51155;51.984;21.208;2023-02-02T07:07:50;1.80;;;1.20;;
64571;SDS011;51155;51.984;21.208;2023-02-02T07:10:22;2.20;;;1.10;;
64571;SDS011;51155;51.984;21.208;2023-02-02T07:13:14;1.40;;;1.00;;
64571;SDS011;51155;51.984;21.208;2023-02-02T07:15:46;1.80;;;0.80;;
64571;SDS011;51155;51.984;21.208;2023-02-02T07:18:19;1.70;;;0.90;;
64571;SDS011;51155;51.984;21.208;2023-02-02T07:20:51;2.10;;;1.00;;
64571;SDS011;51155;51.984;21.208;2023-02-02T07:23:23;2.00;;;1.00;;
64571;SDS011;51155;51.984;21.208;2023-02-02T07:26:06;2.60;;;1.00;;
64571;SDS011;51155;51.984;21.208;2023-02-02T07:28:39;2.50;;;1.00;;
64571;SDS011;51155;51.984;21.208;2023-02-02T07:31:18;2.40;;;0.80;;
64571;SDS011;51155;51.984;21.208;2023-02-02T07:33:50;2.10;;;1.00;;
64571;SDS011;51155;51.984;21.208;2023-02-02T07:36:23;2.40;;;0.90;;
64571;SDS011;51155;51.984;21.208;2023-02-02T07:38:55;3.00;;;1.10;;
64571;SDS011;51155;51.984;21.208;2023-02-02T07:41:34;2.80;;;1.10;;
64571;SDS011;51155;51.984;21.208;2023-02-02T07:44:11;1.40;;;1.00;;
64571;SDS011;51155;51.984;21.208;2023-02-02T07:46:46;1.70;;;0.90;;
64571;SDS011;51155;51.984;21.208;2023-02-02T07:51:50;1.20;;;0.80;;
64571;SDS011;51155;51.984;21.208;2023-02-02T07:54:22;2.30;;;1.00;;
64571;SDS011;51155;51.984;21.208;2023-02-02T07:56:54;1.70;;;0.90;;
64571;SDS011;51155;51.984;21.208;2023-02-02T07:59:26;2.20;;;1.20;;
64571;SDS011;51155;51.984;21.208;2023-02-02T08:02:00;2.10;;;1.00;;
64571;SDS011;51155;51.984;21.208;2023-02-02T08:04:33;1.90;;;0.90;;
64571;SDS011;51155;51.984;21.208;2023-02-02T08:07:05;2.60;;;1.10;;
64571;SDS011;51155;51.984;21.208;2023-02-02T08:09:36;1.50;;;0.80;;
64571;SDS011;51155;51.984;21.208;2023-02-02T08:12:09;2.90;;;1.10;;
64571;SDS011;51155;51.984;21.208;2023-02-02T08:14:41;2.20;;;1.50;;
64571;SDS011;51155;51.984;21.208;2023-02-02T08:17:13;1.50;;;0.70;;
64571;SDS011;51155;51.984;21.208;2023-02-02T08:19:45;2.00;;;1.20;;
64571;SDS011;51155;51.984;21.208;2023-02-02T08:22:17;1.70;;;0.70;;
64571;SDS011;51155;51.984;21.208;2023-02-02T08:24:51;2.40;;;1.00;;
64571;SDS011;51155;51.984;21.208;2023-02-02T08:27:22;2.80;;;1.00;;
64571;SDS011;51155;51.984;21.208;2023-02-02T08:29:54;1.30;;;0.90;;
64571;SDS011;51155;51.984;21.208;2023-02-02T08:32:27;1.60;;;0.90;;
64571;SDS011;51155;51.984;21.208;2023-02-02T08:35:01;1.90;;;1.00;;
64571;SDS011;51155;51.984;21.208;2023-02-02T08:37:33;1.80;;;1.00;;
64571;SDS011;51155;51.984;21.208;2023-02-02T08:40:06;1.80;;;0.80;;
64571;SDS011;51155;51.984;21.208;2023-02-02T08:42:38;1.80;;;0.90;;
64571;SDS011;51155;51.984;21.208;2023-02-02T08:45:10;2.30;;;1.20;;
64571;SDS011;51155;51.984;21.208;2023-02-02T08:48:02;2.80;;;1.20;;
64571;SDS011;51155;51.984;21.208;2023-02-02T08:50:42;2.20;;;1.10;;
64571;SDS011;51155;51.984;21.208;2023-02-02T08:53:14;3.00;;;1.40;;
64571;SDS011;51155;51.984;21.208;2023-02-02T08:55:47;2.40;;;1.20;;
64571;SDS011;51155;51.984;21.208;2023-02-02T08:58:19;2.10;;;1.00;;
64571;SDS011;51155;51.984;21.208;2023-02-02T09:00:51;2.00;;;1.00;;
64571;SDS011;51155;51.984;21.208;2023-02-02T09:03:23;1.90;;;0.90;;
64571;SDS011;51155;51.984;21.208;2023-02-02T09:05:55;1.90;;;1.00;;
64571;SDS011;51155;51.984;21.208;2023-02-02T09:08:27;2.50;;;1.00;;
64571;SDS011;51155;51.984;21.208;2023-02-02T09:11:18;1.80;;;1.00;;
64571;SDS011;51155;51.984;21.208;2023-02-02T09:13:54;2.20;;;1.00;;
64571;SDS011;51155;51.984;21.208;2023-02-02T09:16:26;1.80;;;1.00;;
64571;SDS011;51155;51.984;21.208;2023-02-02T09:18:59;2.20;;;0.90;;
64571;SDS011;51155;51.984;21.208;2023-02-02T09:21:31;1.60;;;0.70;;
64571;SDS011;51155;51.984;21.208;2023-02-02T09:24:10;1.90;;;0.70;;
64571;SDS011;51155;51.984;21.208;2023-02-02T09:26:43;2.10;;;0.80;;
64571;SDS011;51155;51.984;21.208;2023-02-02T09:31:48;3.50;;;1.00;;
64571;SDS011;51155;51.984;21.208;2023-02-02T09:34:21;2.40;;;1.10;;
64571;SDS011;51155;51.984;21.208;2023-02-02T09:36:52;1.70;;;0.80;;
64571;SDS011;51155;51.984;21.208;2023-02-02T09:39:25;2.30;;;1.50;;
64571;SDS011;51155;51.984;21.208;2023-02-02T09:47:23;1.60;;;0.80;;
64571;SDS011;51155;51.984;21.208;2023-02-02T09:55:45;2.10;;;0.90;;
64571;SDS011;51155;51.984;21.208;2023-02-02T09:58:33;1.90;;;0.90;;
64571;SDS011;51155;51.984;21.208;2023-02-02T10:01:14;1.90;;;0.90;;
64571;SDS011;51155;51.984;21.208;2023-02-02T10:06:53;1.20;;;0.80;;
64571;SDS011;51155;51.984;21.208;2023-02-02T10:10:31;1.60;;;0.80;;
64571;SDS011;51155;51.984;21.208;2023-02-02T10:12:56;2.40;;;1.10;;
64571;SDS011;51155;51.984;21.208;2023-02-02T10:19:08;1.90;;;0.80;;
64571;SDS011;51155;51.984;21.208;2023-02-02T10:21:59;1.50;;;0.90;;
64571;SDS011;51155;51.984;21.208;2023-02-02T10:24:35;1.50;;;0.90;;
64571;SDS011;51155;51.984;21.208;2023-02-02T10:27:15;1.30;;;0.80;;
64571;SDS011;51155;51.984;21.208;2023-02-02T10:30:00;1.90;;;0.80;;
64571;SDS011;51155;51.984;21.208;2023-02-02T10:32:45;1.60;;;0.80;;
64571;SDS011;51155;51.984;21.208;2023-02-02T10:46:00;2.20;;;1.00;;
64571;SDS011;51155;51.984;21.208;2023-02-02T10:48:34;1.80;;;0.70;;
64571;SDS011;51155;51.984;21.208;2023-02-02T10:51:21;2.00;;;1.10;;
64571;SDS011;51155;51.984;21.208;2023-02-02T10:53:59;1.40;;;0.90;;
64571;SDS011;51155;51.984;21.208;2023-02-02T10:56:41;1.70;;;0.80;;
64571;SDS011;51155;51.984;21.208;2023-02-02T10:59:32;1.70;;;0.80;;
64571;SDS011;51155;51.984;21.208;2023-02-02T11:02:11;2.30;;;0.80;;
64571;SDS011;51155;51.984;21.208;2023-02-02T11:04:51;1.20;;;0.70;;
64571;SDS011;51155;51.984;21.208;2023-02-02T11:07:42;2.10;;;1.10;;
64571;SDS011;51155;51.984;21.208;2023-02-02T11:10:14;2.00;;;0.90;;
64571;SDS011;51155;51.984;21.208;2023-02-02T11:12:46;1.50;;;1.00;;
64571;SDS011;51155;51.984;21.208;2023-02-02T11:15:27;2.20;;;0.90;;
64571;SDS011;51155;51.984;21.208;2023-02-02T11:18:18;1.30;;;0.80;;
64571;SDS011;51155;51.984;21.208;2023-02-02T11:20:56;1.10;;;0.70;;
64571;SDS011;51155;51.984;21.208;2023-02-02T11:23:28;2.40;;;1.00;;
64571;SDS011;51155;51.984;21.208;2023-02-02T11:26:01;2.10;;;1.20;;
64571;SDS011;51155;51.984;21.208;2023-02-02T11:28:35;2.40;;;1.30;;
64571;SDS011;51155;51.984;21.208;2023-02-02T11:31:08;1.30;;;0.70;;
64571;SDS011;51155;51.984;21.208;2023-02-02T11:33:40;2.00;;;1.10;;
64571;SDS011;51155;51.984;21.208;2023-02-02T11:36:20;2.20;;;1.00;;
64571;SDS011;51155;51.984;21.208;2023-02-02T11:39:17;1.40;;;0.90;;
64571;SDS011;51155;51.984;21.208;2023-02-02T11:41:58;1.70;;;1.10;;
64571;SDS011;51155;51.984;21.208;2023-02-02T11:44:31;1.80;;;1.00;;
64571;SDS011;51155;51.984;21.208;2023-02-02T11:47:03;1.90;;;1.10;;
64571;SDS011;51155;51.984;21.208;2023-02-02T11:49:37;1.30;;;0.70;;
64571;SDS011;51155;51.984;21.208;2023-02-02T11:52:20;1.60;;;0.90;;
64571;SDS011;51155;51.984;21.208;2023-02-02T11:54:56;2.20;;;0.90;;
64571;SDS011;51155;51.984;21.208;2023-02-02T11:57:28;1.70;;;0.70;;
64571;SDS011;51155;51.984;21.208;2023-02-02T12:02:46;1.60;;;1.00;;
64571;SDS011;51155;51.984;21.208;2023-02-02T12:07:51;1.40;;;0.90;;
64571;SDS011;51155;51.984;21.208;2023-02-02T12:10:27;2.20;;;0.90;;
64571;SDS011;51155;51.984;21.208;2023-02-02T12:24:29;1.40;;;0.90;;
64571;SDS011;51155;51.984;21.208;2023-02-02T12:27:25;1.20;;;0.90;;
64571;SDS011;51155;51.984;21.208;2023-02-02T12:30:42;1.80;;;0.80;;
64571;SDS011;51155;51.984;21.208;2023-02-02T12:33:22;1.50;;;0.90;;
64571;SDS011;51155;51.984;21.208;2023-02-02T12:39:35;1.50;;;0.90;;
64571;SDS011;51155;51.984;21.208;2023-02-02T12:44:52;2.00;;;1.10;;
64571;SDS011;51155;51.984;21.208;2023-02-02T12:47:52;1.40;;;0.90;;
64571;SDS011;51155;51.984;21.208;2023-02-02T12:59:40;2.20;;;1.10;;
64571;SDS011;51155;51.984;21.208;2023-02-02T13:10:43;1.60;;;1.20;;
64571;SDS011;51155;51.984;21.208;2023-02-02T13:13:19;2.20;;;1.20;;
64571;SDS011;51155;51.984;21.208;2023-02-02T13:16:01;1.50;;;0.90;;
64571;SDS011;51155;51.984;21.208;2023-02-02T13:18:42;1.40;;;0.90;;
64571;SDS011;51155;51.984;21.208;2023-02-02T13:21:18;1.90;;;1.20;;
64571;SDS011;51155;51.984;21.208;2023-02-02T13:23:54;1.50;;;0.90;;
64571;SDS011;51155;51.984;21.208;2023-02-02T13:26:35;2.10;;;1.00;;
64571;SDS011;51155;51.984;21.208;2023-02-02T13:31:49;1.10;;;0.90;;
64571;SDS011;51155;51.984;21.208;2023-02-02T13:34:42;1.50;;;1.00;;
64571;SDS011;51155;51.984;21.208;2023-02-02T13:37:19;1.40;;;0.90;;
64571;SDS011;51155;51.984;21.208;2023-02-02T13:40:02;1.40;;;0.90;;
64571;SDS011;51155;51.984;21.208;2023-02-02T13:45:22;1.50;;;1.10;;
64571;SDS011;51155;51.984;21.208;2023-02-02T13:50:52;1.30;;;0.90;;
64571;SDS011;51155;51.984;21.208;2023-02-02T13:56:37;1.50;;;0.90;;
64571;SDS011;51155;51.984;21.208;2023-02-02T14:01:49;1.70;;;1.10;;
64571;SDS011;51155;51.984;21.208;2023-02-02T14:07:02;1.60;;;0.90;;
64571;SDS011;51155;51.984;21.208;2023-02-02T14:09:36;1.50;;;0.90;;
64571;SDS011;51155;51.984;21.208;2023-02-02T14:12:08;1.80;;;1.10;;
64571;SDS011;51155;51.984;21.208;2023-02-02T14:14:41;1.70;;;1.10;;
64571;SDS011;51155;51.984;21.208;2023-02-02T14:19:56;1.80;;;1.10;;
64571;SDS011;51155;51.984;21.208;2023-02-02T14:22:54;2.20;;;1.30;;
64571;SDS011;51155;51.984;21.208;2023-02-02T14:28:12;1.00;;;0.90;;
64571;SDS011;51155;51.984;21.208;2023-02-02T14:51:27;1.50;;;1.10;;
64571;SDS011;51155;51.984;21.208;2023-02-02T14:54:13;1.60;;;1.00;;
64571;SDS011;51155;51.984;21.208;2023-02-02T14:57:22;1.90;;;1.30;;
64571;SDS011;51155;51.984;21.208;2023-02-02T14:59:56;2.00;;;1.20;;
64571;SDS011;51155;51.984;21.208;2023-02-02T15:02:33;2.20;;;1.20;;
64571;SDS011;51155;51.984;21.208;2023-02-02T15:08:21;1.90;;;1.30;;
64571;SDS011;51155;51.984;21.208;2023-02-02T15:13:28;2.20;;;1.20;;
64571;SDS011;51155;51.984;21.208;2023-02-02T15:16:18;2.30;;;1.20;;
64571;SDS011;51155;51.984;21.208;2023-02-02T15:18:58;1.90;;;1.50;;
64571;SDS011;51155;51.984;21.208;2023-02-02T15:21:30;1.50;;;1.10;;
64571;SDS011;51155;51.984;21.208;2023-02-02T15:24:12;2.00;;;1.30;;
64571;SDS011;51155;51.984;21.208;2023-02-02T15:26:47;2.30;;;1.20;;
64571;SDS011;51155;51.984;21.208;2023-02-02T15:29:34;2.20;;;1.10;;
64571;SDS011;51155;51.984;21.208;2023-02-02T15:32:13;2.50;;;1.20;;
64571;SDS011;51155;51.984;21.208;2023-02-02T15:35:10;3.00;;;1.30;;
64571;SDS011;51155;51.984;21.208;2023-02-02T15:37:42;2.30;;;1.30;;
64571;SDS011;51155;51.984;21.208;2023-02-02T15:40:20;1.90;;;1.30;;
64571;SDS011;51155;51.984;21.208;2023-02-02T15:42:56;2.70;;;1.20;;
64571;SDS011;51155;51.984;21.208;2023-02-02T15:45:40;2.20;;;1.40;;
64571;SDS011;51155;51.984;21.208;2023-02-02T15:48:18;2.20;;;1.40;;
64571;SDS011;51155;51.984;21.208;2023-02-02T15:50:52;2.30;;;1.40;;
64571;SDS011;51155;51.984;21.208;2023-02-02T15:53:33;2.30;;;1.30;;
64571;SDS011;51155;51.984;21.208;2023-02-02T15:56:24;1.90;;;1.30;;
64571;SDS011;51155;51.984;21.208;2023-02-02T15:58:58;2.20;;;1.30;;
64571;SDS011;51155;51.984;21.208;2023-02-02T16:01:31;2.40;;;1.30;;
64571;SDS011;51155;51.984;21.208;2023-02-02T16:06:39;2.10;;;1.40;;
64571;SDS011;51155;51.984;21.208;2023-02-02T16:09:37;1.90;;;1.20;;
64571;SDS011;51155;51.984;21.208;2023-02-02T16:12:17;2.50;;;1.40;;
64571;SDS011;51155;51.984;21.208;2023-02-02T16:14:53;2.60;;;1.40;;
64571;SDS011;51155;51.984;21.208;2023-02-02T16:17:30;2.30;;;1.10;;
64571;SDS011;51155;51.984;21.208;2023-02-02T16:20:13;2.00;;;1.20;;
64571;SDS011;51155;51.984;21.208;2023-02-02T16:22:45;2.90;;;1.20;;
64571;SDS011;51155;51.984;21.208;2023-02-02T16:25:18;1.90;;;1.40;;
64571;SDS011;51155;51.984;21.208;2023-02-02T16:27:51;1.90;;;1.40;;
64571;SDS011;51155;51.984;21.208;2023-02-02T16:30:35;2.30;;;1.50;;
64571;SDS011;51155;51.984;21.208;2023-02-02T16:35:58;2.60;;;1.20;;
64571;SDS011;51155;51.984;21.208;2023-02-02T16:38:35;2.90;;;1.30;;
64571;SDS011;51155;51.984;21.208;2023-02-02T16:41:13;2.20;;;1.40;;
64571;SDS011;51155;51.984;21.208;2023-02-02T16:43:55;2.10;;;1.50;;
64571;SDS011;51155;51.984;21.208;2023-02-02T16:46:53;1.90;;;1.10;;
64571;SDS011;51155;51.984;21.208;2023-02-02T16:49:26;2.00;;;1.50;;
64571;SDS011;51155;51.984;21.208;2023-02-02T16:52:09;2.40;;;1.40;;
64571;SDS011;51155;51.984;21.208;2023-02-02T16:54:54;3.00;;;1.30;;
64571;SDS011;51155;51.984;21.208;2023-02-02T16:57:31;2.00;;;1.10;;
64571;SDS011;51155;51.984;21.208;2023-02-02T17:00:05;2.20;;;1.30;;
64571;SDS011;51155;51.984;21.208;2023-02-02T17:02:39;2.50;;;1.30;;
64571;SDS011;51155;51.984;21.208;2023-02-02T17:08:00;3.70;;;1.70;;
64571;SDS011;51155;51.984;21.208;2023-02-02T17:10:40;1.80;;;1.20;;
64571;SDS011;51155;51.984;21.208;2023-02-02T17:16:04;2.40;;;1.50;;
64571;SDS011;51155;51.984;21.208;2023-02-02T17:18:36;3.30;;;1.60;;
64571;SDS011;51155;51.984;21.208;2023-02-02T17:21:12;2.40;;;1.50;;
64571;SDS011;51155;51.984;21.208;2023-02-02T17:23:45;2.10;;;1.50;;
64571;SDS011;51155;51.984;21.208;2023-02-02T17:26:17;2.30;;;1.20;;
64571;SDS011;51155;51.984;21.208;2023-02-02T17:28:49;2.60;;;1.30;;
64571;SDS011;51155;51.984;21.208;2023-02-02T17:31:25;2.50;;;1.40;;
64571;SDS011;51155;51.984;21.208;2023-02-02T17:33:57;1.70;;;1.20;;
64571;SDS011;51155;51.984;21.208;2023-02-02T17:36:29;1.90;;;1.30;;
64571;SDS011;51155;51.984;21.208;2023-02-02T17:39:01;2.20;;;1.60;;
64571;SDS011;51155;51.984;21.208;2023-02-02T17:41:33;2.20;;;1.40;;
64571;SDS011;51155;51.984;21.208;2023-02-02T17:44:05;1.80;;;1.50;;
64571;SDS011;51155;51.984;21.208;2023-02-02T17:46:37;1.90;;;1.30;;
64571;SDS011;51155;51.984;21.208;2023-02-02T17:49:10;2.10;;;1.20;;
64571;SDS011;51155;51.984;21.208;2023-02-02T17:51:42;1.90;;;1.40;;
64571;SDS011;51155;51.984;21.208;2023-02-02T17:54:15;1.70;;;1.20;;
64571;SDS011;51155;51.984;21.208;2023-02-02T17:56:47;2.50;;;1.30;;
64571;SDS011;51155;51.984;21.208;2023-02-02T17:59:19;2.00;;;1.30;;
64571;SDS011;51155;51.984;21.208;2023-02-02T18:01:51;1.90;;;1.40;;
64571;SDS011;51155;51.984;21.208;2023-02-02T18:04:25;3.10;;;1.40;;
64571;SDS011;51155;51.984;21.208;2023-02-02T18:06:57;2.50;;;1.40;;
64571;SDS011;51155;51.984;21.208;2023-02-02T18:09:29;2.50;;;1.10;;